Terminal Aerodrome Forecast
Issued by NWS

Home | Current Version | Previous Version | Text Only | Print | Product List | Glossary On
Versions: 1 2 3 4 5 6 7 8 9 10 11 12 13 14 15 16 17
307
FTUS43 KPAH 060528
TAFCGI
TAF
KCGI 060528Z 0606/0706 04005KT 4SM -RA BR OVC015
     FM060800 02005KT 2SM -RA BR OVC007
     FM061400 32010KT 4SM -DZ BR OVC015
     FM061600 33014G22KT P6SM BKN025
     FM062100 34010KT P6SM SCT030
     FM070000 01006KT P6SM SCT250=

USA.gov is the U.S. government's official web portal to all federal, state and local government web resources and services.